Etusivu
METAR-TAF:

METAR-TAF

Lentoasemat :

Tabarka, Tunisia

Leveyspiiri: 36-57N, Pituuspiiri: 008-45E, korkeus merenpinnasta: 20 m

Tämänhetkinen sää

Tämä raportti tehtiin 2 tuntia ja 14 minuuttia sitten, kello 03.00 UTC
Tuuli 3 kn etelästä/lounaasta, vaihdellen idän/kaakon ja lännen/lounaan välillä
Lämpötila 13°C
Kosteus 72%
Ilmanpaine 1016 hPa
Näkyvyys 10 km tai enemmän
Muutamia pilviä 2000 ft:n korkeudessa

METAR: DTKA 270300Z 20003KT 120V240 9999 FEW020 13/08 Q1016 NOSIG

Aika: 06:14 (05:14 UTC)

Sääennuste

Tämä raportti tehtiin 5 tuntia ja 14 minuuttia sitten, kello 00.00 UTC
Ennuste voimassa 27. päivästä klo 01 UTC - 27. päivään klo 10 UTC
Tuuli 7 kn etelästä/kaakosta
Näkyvyys 10 km tai enemmän
Muutamia pilviä 2000 ft:n korkeudessa

TAF: DTKA 270000Z 2701/2710 15007KT 9999 FEW020

Säähavainnot ja -ennusteet yli 4000 lentoasemalta (METAR- ja TAF-raportit).

Käytössä olevat sääasemat on merkitty karttaan keltaisilla ja punaisilla pisteillä.

Aseta hiiri pisteen päälle nähdäksesi sääaseman nimen.

Klikkaa sitten nähdäksesi säähavainnot ja -ennusteet.

Kartan vaihtaminen: klikkaa mustalla rastilla varustettuja vihreitä pisteitä, niin voit zoomata sisään; viivalla varustettua vihreää pistettä, niin voit zoomata ulos tai vihreitä nuolia, niin pääset viereisille kartoille.


METAR-TAF: